createdAt,value
2022-08-21T00:00:44.182Z,26.42
2022-08-21T00:03:14.750Z,25.85
2022-08-21T00:05:50.335Z,27.30
2022-08-21T00:08:20.296Z,26.60
2022-08-21T00:10:50.749Z,26.55
2022-08-21T00:13:21.758Z,26.73
2022-08-21T00:18:22.031Z,27.13
2022-08-21T00:20:53.636Z,26.10
2022-08-21T00:25:52.000Z,26.67
2022-08-21T00:28:21.437Z,25.77
2022-08-21T00:30:50.616Z,25.58
2022-08-21T00:33:19.763Z,25.38
2022-08-21T00:35:49.201Z,25.70
2022-08-21T00:38:21.300Z,27.25
2022-08-21T00:40:53.662Z,26.02
2022-08-21T00:43:26.657Z,25.83
2022-08-21T00:45:56.407Z,24.70
2022-08-21T00:48:28.845Z,23.45
2022-08-21T00:51:02.605Z,25.15
2022-08-21T00:53:34.661Z,24.95
2022-08-21T00:56:06.780Z,25.42
2022-08-21T00:58:37.910Z,24.25
2022-08-21T01:01:09.852Z,24.63
2022-08-21T01:03:39.856Z,25.85
2022-08-21T01:06:15.503Z,24.75
2022-08-21T01:08:47.810Z,25.75
2022-08-21T01:11:18.187Z,24.95
2022-08-21T01:13:48.972Z,23.95
2022-08-21T01:16:24.056Z,24.30
2022-08-21T01:18:54.120Z,24.70
2022-08-21T01:21:28.387Z,23.85
2022-08-21T01:23:59.587Z,25.73
2022-08-21T01:26:33.932Z,24.23
2022-08-21T01:29:07.804Z,23.58
2022-08-21T01:31:37.717Z,24.10
2022-08-21T01:34:07.616Z,24.85
2022-08-21T01:36:39.462Z,23.40
2022-08-21T01:41:38.985Z,22.75
2022-08-21T01:44:08.436Z,25.33
2022-08-21T01:46:38.049Z,24.98
2022-08-21T01:49:08.145Z,25.30
2022-08-21T01:51:39.216Z,24.15
2022-08-21T01:54:08.505Z,24.92
2022-08-21T01:56:40.703Z,23.58
2022-08-21T01:59:10.344Z,21.85
2022-08-21T02:01:40.065Z,23.63
2022-08-21T02:04:10.638Z,25.30
2022-08-21T02:06:41.849Z,24.52
2022-08-21T02:09:14.577Z,25.27
2022-08-21T02:11:45.136Z,24.52
2022-08-21T02:14:32.392Z,22.98
2022-08-21T02:17:05.311Z,24.45
2022-08-21T02:19:40.709Z,25.05
2022-08-21T02:22:13.671Z,22.20
2022-08-21T02:24:53.851Z,24.98
2022-08-21T02:27:26.786Z,24.13
2022-08-21T02:32:26.699Z,24.75
2022-08-21T02:34:56.210Z,25.48
2022-08-21T02:37:27.589Z,26.08
2022-08-21T02:39:58.647Z,26.05
2022-08-21T02:42:28.238Z,27.60
2022-08-21T02:44:58.057Z,27.90
2022-08-21T02:47:27.182Z,26.70
2022-08-21T02:49:56.392Z,26.15
2022-08-21T02:52:27.743Z,27.27
2022-08-21T02:54:57.149Z,27.73
2022-08-21T02:57:26.277Z,29.02
2022-08-21T02:59:55.864Z,26.95
2022-08-21T03:02:26.575Z,28.67
2022-08-21T03:04:56.446Z,26.65
2022-08-21T03:07:27.724Z,30.23
2022-08-21T03:09:56.893Z,29.80
2022-08-21T03:12:29.669Z,29.98
2022-08-21T03:14:59.407Z,30.95
2022-08-21T03:17:29.735Z,31.67
2022-08-21T03:19:59.969Z,31.83
2022-08-21T03:22:32.686Z,29.33
2022-08-21T03:25:06.381Z,29.30
2022-08-21T03:27:37.000Z,25.88
2022-08-21T03:30:10.860Z,30.75
2022-08-21T03:32:42.215Z,32.85
2022-08-21T03:35:12.519Z,33.42
2022-08-21T03:37:44.247Z,31.85
2022-08-21T03:40:15.325Z,33.90
2022-08-21T03:42:45.834Z,35.00
2022-08-21T03:45:15.299Z,35.47
2022-08-21T03:47:54.035Z,34.78
2022-08-21T03:50:23.454Z,34.13
2022-08-21T03:52:54.625Z,35.35
2022-08-21T03:55:24.089Z,36.80
2022-08-21T03:57:53.867Z,37.38
2022-08-21T04:00:23.965Z,38.70
2022-08-21T04:02:53.571Z,37.53
2022-08-21T04:05:30.690Z,38.00
2022-08-21T04:08:08.547Z,37.33
2022-08-21T04:10:40.343Z,37.78
2022-08-21T04:13:10.576Z,38.45
2022-08-21T04:15:39.739Z,37.55
2022-08-21T04:18:08.937Z,38.88
2022-08-21T04:20:38.167Z,38.25
2022-08-21T04:23:10.053Z,38.75
2022-08-21T04:25:39.345Z,38.75
2022-08-21T04:28:08.418Z,41.03
2022-08-21T04:30:38.259Z,39.50
2022-08-21T04:33:07.908Z,40.90
2022-08-21T04:35:37.090Z,37.95
2022-08-21T04:38:06.254Z,40.42
2022-08-21T04:40:37.417Z,39.65
2022-08-21T04:43:10.632Z,40.40
2022-08-21T04:45:42.792Z,39.97
2022-08-21T04:48:14.391Z,40.08
2022-08-21T04:53:19.158Z,37.17
2022-08-21T04:55:51.749Z,37.33
2022-08-21T04:58:23.325Z,37.08
2022-08-21T05:00:56.797Z,37.13
2022-08-21T05:03:26.899Z,39.42
2022-08-21T05:05:55.972Z,38.83
2022-08-21T05:08:28.670Z,38.53
2022-08-21T05:11:00.743Z,38.60
2022-08-21T05:13:30.638Z,36.90
2022-08-21T05:15:59.837Z,38.58
2022-08-21T05:18:31.382Z,38.72
2022-08-21T05:21:01.041Z,39.10
2022-08-21T05:23:30.116Z,39.90
2022-08-21T05:26:01.649Z,39.35
2022-08-21T05:28:31.403Z,38.38
2022-08-21T05:31:00.505Z,39.30
2022-08-21T05:33:29.851Z,38.90
2022-08-21T05:36:00.752Z,38.35
2022-08-21T05:38:30.187Z,40.53
2022-08-21T05:41:01.352Z,40.88
2022-08-21T05:43:30.507Z,40.60
2022-08-21T05:45:59.617Z,38.70
2022-08-21T05:48:28.819Z,38.97
2022-08-21T05:50:58.022Z,36.97
2022-08-21T05:53:28.069Z,38.10
2022-08-21T05:55:57.176Z,40.03
2022-08-21T05:58:28.583Z,39.55
2022-08-21T06:00:59.240Z,40.83
2022-08-21T06:03:31.185Z,40.03
2022-08-21T06:06:01.350Z,38.13
2022-08-21T06:08:30.767Z,39.67
2022-08-21T06:11:02.136Z,40.42
2022-08-21T06:13:33.351Z,39.30
2022-08-21T06:16:09.309Z,39.22
2022-08-21T06:18:40.104Z,37.97
2022-08-21T06:21:11.927Z,36.37
2022-08-21T06:23:41.278Z,35.47
2022-08-21T06:26:12.564Z,35.72
2022-08-21T06:28:44.488Z,35.90
2022-08-21T06:31:16.409Z,37.03
2022-08-21T06:33:46.406Z,35.42
2022-08-21T06:36:16.107Z,36.28
2022-08-21T06:38:51.678Z,36.25
2022-08-21T06:41:23.809Z,37.05
2022-08-21T06:43:56.015Z,37.33
2022-08-21T06:46:25.723Z,36.80
2022-08-21T06:48:55.121Z,36.67
2022-08-21T06:51:26.212Z,37.25
2022-08-21T06:53:55.437Z,37.85
2022-08-21T06:56:24.698Z,33.28
2022-08-21T06:58:55.961Z,34.67
2022-08-21T07:01:28.184Z,34.95
2022-08-21T07:03:58.354Z,36.25
2022-08-21T07:06:27.609Z,37.40
2022-08-21T07:08:59.015Z,31.02
2022-08-21T07:11:28.822Z,37.20
2022-08-21T07:14:00.002Z,36.80
2022-08-21T07:16:29.423Z,36.10
2022-08-21T07:19:10.031Z,34.05
2022-08-21T07:21:40.474Z,37.00
2022-08-21T07:24:09.783Z,34.03
2022-08-21T07:26:39.326Z,30.80
2022-08-21T07:29:10.476Z,29.10
2022-08-21T07:31:39.798Z,28.85
2022-08-21T07:34:08.961Z,28.45
2022-08-21T07:36:38.209Z,26.17
2022-08-21T07:39:09.114Z,26.58
2022-08-21T07:41:38.170Z,26.90
2022-08-21T07:44:10.384Z,25.98
2022-08-21T07:46:43.933Z,23.80
2022-08-21T07:49:13.174Z,26.30
2022-08-21T07:51:42.554Z,27.75
2022-08-21T07:54:11.793Z,28.17
2022-08-21T07:56:46.470Z,28.45
2022-08-21T07:59:15.670Z,27.23
2022-08-21T08:01:46.873Z,27.25
2022-08-21T08:04:16.926Z,26.63
2022-08-21T08:06:46.343Z,25.58
2022-08-21T08:09:15.796Z,23.70
2022-08-21T08:11:46.182Z,22.40
2022-08-21T08:14:16.232Z,22.27
2022-08-21T08:16:47.266Z,21.58
2022-08-21T08:19:16.482Z,22.05
2022-08-21T08:21:45.689Z,21.10
2022-08-21T08:24:18.415Z,20.35
2022-08-21T08:26:53.914Z,19.35
2022-08-21T08:29:23.915Z,19.67
2022-08-21T08:31:55.178Z,19.20
2022-08-21T08:36:54.993Z,16.73
2022-08-21T08:39:26.978Z,18.33
2022-08-21T08:42:32.850Z,17.98
2022-08-21T08:45:00.290Z,18.17
2022-08-21T08:47:34.441Z,17.02
2022-08-21T08:50:07.366Z,17.10
2022-08-21T08:52:39.702Z,17.60
2022-08-21T08:55:15.374Z,18.02
2022-08-21T08:57:50.301Z,17.40
2022-08-21T09:00:22.585Z,15.68
2022-08-21T09:02:57.637Z,17.13
2022-08-21T09:05:29.189Z,16.42
2022-08-21T09:10:49.395Z,15.63
2022-08-21T09:13:26.727Z,17.10
2022-08-21T09:16:02.784Z,16.83
2022-08-21T09:18:46.186Z,17.13
2022-08-21T09:21:23.600Z,16.27
2022-08-21T09:24:02.997Z,13.63
2022-08-21T09:26:38.102Z,16.55
2022-08-21T09:29:09.733Z,15.73
2022-08-21T09:31:40.404Z,16.50
2022-08-21T09:34:14.325Z,16.73
2022-08-21T09:36:45.995Z,16.80
2022-08-21T09:39:25.798Z,17.42
2022-08-21T09:42:00.407Z,17.95
2022-08-21T09:44:33.005Z,17.42
2022-08-21T09:47:02.946Z,16.40
2022-08-21T09:49:37.088Z,15.48
2022-08-21T09:52:15.532Z,13.70
2022-08-21T09:54:49.068Z,13.30
2022-08-21T09:57:38.804Z,12.85
2022-08-21T10:00:18.127Z,11.13
2022-08-21T10:02:47.435Z,8.70
2022-08-21T10:05:28.811Z,11.73
2022-08-21T10:07:58.134Z,10.55
2022-08-21T10:10:31.230Z,10.68
2022-08-21T10:13:06.049Z,11.05
2022-08-21T10:15:50.111Z,10.13
2022-08-21T10:18:28.065Z,10.63
2022-08-21T10:21:08.142Z,9.77
2022-08-21T10:23:53.200Z,8.85
2022-08-21T10:26:36.557Z,8.25
2022-08-21T10:29:15.884Z,7.25
2022-08-21T10:31:55.132Z,7.30
2022-08-21T10:34:40.288Z,6.97
2022-08-21T10:37:24.096Z,7.40
2022-08-21T10:40:09.821Z,8.45
2022-08-21T10:42:49.914Z,7.85
2022-08-21T10:45:43.155Z,8.48
2022-08-21T10:48:23.784Z,8.93
2022-08-21T10:50:58.346Z,9.10
2022-08-21T10:53:51.325Z,9.90
2022-08-21T10:56:24.921Z,8.65
2022-08-21T10:59:07.527Z,10.15
2022-08-21T11:01:47.990Z,9.75
2022-08-21T11:04:23.509Z,10.32
2022-08-21T11:07:04.595Z,10.65
2022-08-21T11:09:43.965Z,12.00
2022-08-21T11:12:23.961Z,12.63
2022-08-21T11:14:59.631Z,13.68
2022-08-21T11:17:36.817Z,13.10
2022-08-21T11:20:14.405Z,14.27
2022-08-21T11:22:54.544Z,15.13
2022-08-21T11:25:37.176Z,13.95
2022-08-21T11:28:14.387Z,13.30
2022-08-21T11:30:59.008Z,14.20
2022-08-21T11:33:45.982Z,12.43
2022-08-21T11:36:23.089Z,11.40
2022-08-21T11:39:01.798Z,10.00
2022-08-21T11:41:40.127Z,10.85
2022-08-21T11:44:18.681Z,11.02
2022-08-21T11:46:57.098Z,10.93
2022-08-21T11:49:50.149Z,11.20
2022-08-21T11:52:25.315Z,10.93
2022-08-21T11:55:01.378Z,11.25
2022-08-21T11:57:37.525Z,11.10
2022-08-21T12:00:12.084Z,10.65
2022-08-21T12:02:48.818Z,11.05
2022-08-21T12:05:33.949Z,10.23
2022-08-21T12:08:07.233Z,9.75
2022-08-21T12:10:40.217Z,10.70
2022-08-21T12:13:15.506Z,9.55
2022-08-21T12:15:44.743Z,9.35
2022-08-21T12:18:26.097Z,9.30
2022-08-21T12:23:36.128Z,8.68
2022-08-21T12:26:25.771Z,9.48
2022-08-21T12:29:16.793Z,10.50
2022-08-21T12:31:58.949Z,10.35
2022-08-21T12:34:35.360Z,9.90
2022-08-21T12:37:09.417Z,10.25
2022-08-21T12:39:45.814Z,10.05
2022-08-21T12:42:23.359Z,10.18
2022-08-21T12:44:59.135Z,8.38
2022-08-21T12:47:34.040Z,7.63
2022-08-21T13:07:48.937Z,10.70
2022-08-21T13:10:23.314Z,11.43
2022-08-21T13:12:53.732Z,10.88
2022-08-21T13:15:33.172Z,12.02
2022-08-21T13:18:04.642Z,12.20
2022-08-21T13:20:38.091Z,13.52
2022-08-21T13:23:22.843Z,13.35
2022-08-21T13:25:52.749Z,13.93
2022-08-21T13:28:21.974Z,13.35
2022-08-21T13:30:53.724Z,13.00
2022-08-21T13:33:36.454Z,12.02
2022-08-21T13:36:12.458Z,12.20
2022-08-21T13:38:45.314Z,11.05
2022-08-21T13:41:23.254Z,9.38
2022-08-21T13:44:06.678Z,9.00
2022-08-21T13:46:38.498Z,6.65
2022-08-21T13:49:09.236Z,6.93
2022-08-21T13:51:39.175Z,7.05
2022-08-21T13:54:25.300Z,7.78
2022-08-21T13:56:56.187Z,8.82
2022-08-21T13:59:31.025Z,9.75
2022-08-21T14:02:02.664Z,10.82
2022-08-21T14:04:38.761Z,10.70
2022-08-21T14:07:20.844Z,8.68
2022-08-21T14:09:52.292Z,8.35
2022-08-21T14:14:58.063Z,5.32
2022-08-21T14:17:33.711Z,5.25
2022-08-21T14:20:04.131Z,4.55
2022-08-21T14:22:41.826Z,4.05
2022-08-21T14:25:16.621Z,3.80
2022-08-21T14:27:51.944Z,3.75
2022-08-21T14:30:23.793Z,2.83
2022-08-21T14:32:53.003Z,3.53
2022-08-21T14:35:23.817Z,3.30
2022-08-21T14:37:54.943Z,3.50
2022-08-21T14:40:27.968Z,3.00
2022-08-21T14:42:58.781Z,3.22
2022-08-21T14:45:30.881Z,2.90
2022-08-21T14:48:01.454Z,2.83
2022-08-21T14:50:30.610Z,2.87
2022-08-21T14:53:00.962Z,2.60
2022-08-21T14:55:53.135Z,2.70
2022-08-21T14:58:23.516Z,2.20
2022-08-21T15:00:53.169Z,2.42
2022-08-21T15:03:24.365Z,2.40
2022-08-21T15:05:54.085Z,2.03
2022-08-21T15:08:23.458Z,2.03
2022-08-21T15:11:11.229Z,2.33
2022-08-21T15:13:42.372Z,2.55
2022-08-21T15:16:12.004Z,2.10
2022-08-21T15:18:42.502Z,1.85
2022-08-21T15:21:12.075Z,2.50
2022-08-21T15:23:43.910Z,2.80
2022-08-21T15:26:17.149Z,2.85
2022-08-21T15:28:46.626Z,2.90
2022-08-21T15:31:16.031Z,3.17
2022-08-21T15:33:45.584Z,3.00
2022-08-21T15:36:14.929Z,2.60
2022-08-21T15:38:44.457Z,2.40
2022-08-21T15:41:16.652Z,3.00
2022-08-21T15:43:49.308Z,2.88
2022-08-21T15:46:21.263Z,2.95
2022-08-21T15:48:52.846Z,3.05
2022-08-21T15:51:23.839Z,3.20
2022-08-21T15:53:52.981Z,3.55
2022-08-21T15:56:28.024Z,3.90
2022-08-21T15:59:05.899Z,3.78
2022-08-21T16:01:45.001Z,3.05
2022-08-21T16:04:26.098Z,3.00
2022-08-21T16:06:59.983Z,3.72
2022-08-21T16:09:37.447Z,5.13
2022-08-21T16:12:09.748Z,5.43
2022-08-21T16:14:39.638Z,5.55
2022-08-21T16:17:09.197Z,9.35
2022-08-21T16:19:40.295Z,9.52
2022-08-21T16:22:12.230Z,12.00
2022-08-21T16:24:41.996Z,14.40
2022-08-21T16:27:13.689Z,21.00
2022-08-21T16:29:44.753Z,25.33
2022-08-21T16:32:14.992Z,31.20
2022-08-21T16:34:47.734Z,31.98
2022-08-21T16:37:23.861Z,34.67
2022-08-21T16:39:53.891Z,34.08
2022-08-21T16:42:28.880Z,34.45
2022-08-21T16:44:59.087Z,37.30
2022-08-21T16:47:28.401Z,38.22
2022-08-21T16:49:58.113Z,41.35
2022-08-21T16:52:27.607Z,39.40
2022-08-21T16:54:57.139Z,40.97
2022-08-21T16:57:29.822Z,38.53
2022-08-21T16:59:59.187Z,39.13
2022-08-21T17:02:33.589Z,39.38
2022-08-21T17:05:03.162Z,36.53
2022-08-21T17:07:36.841Z,35.00
2022-08-21T17:10:09.691Z,34.90
2022-08-21T17:12:43.395Z,34.10
2022-08-21T17:15:21.471Z,35.72
2022-08-21T17:17:51.300Z,34.92
2022-08-21T17:20:21.590Z,35.22
2022-08-21T17:22:51.566Z,34.38
2022-08-21T17:25:21.093Z,35.65
2022-08-21T17:27:53.110Z,35.55
2022-08-21T17:30:23.050Z,35.67
2022-08-21T17:32:56.051Z,34.22
2022-08-21T17:35:25.342Z,36.15
2022-08-21T17:37:54.646Z,33.10
2022-08-21T17:40:24.359Z,34.95
2022-08-21T17:42:55.653Z,33.42
2022-08-21T17:45:26.086Z,32.20
2022-08-21T17:47:58.939Z,30.02
2022-08-21T17:50:28.466Z,30.25
2022-08-21T17:53:01.245Z,30.20
2022-08-21T17:55:31.371Z,28.98
2022-08-21T17:58:03.473Z,28.20
2022-08-21T18:00:33.913Z,27.15
2022-08-21T18:03:07.385Z,24.23
2022-08-21T18:05:37.106Z,23.70
2022-08-21T18:08:06.386Z,22.60
2022-08-21T18:10:35.920Z,22.85
2022-08-21T18:13:09.830Z,21.60
2022-08-21T18:15:39.285Z,21.08
2022-08-21T18:18:09.009Z,20.77
2022-08-21T18:20:38.714Z,19.45
2022-08-21T18:23:07.998Z,17.95
2022-08-21T18:25:37.792Z,17.38
2022-08-21T18:28:12.303Z,17.15
2022-08-21T18:30:44.181Z,15.60
2022-08-21T18:33:15.525Z,14.18
2022-08-21T18:35:45.148Z,13.07
2022-08-21T18:38:14.821Z,13.23
2022-08-21T18:40:51.498Z,13.00
2022-08-21T18:43:26.557Z,13.63
2022-08-21T18:46:00.223Z,12.32
2022-08-21T18:48:32.363Z,11.63
2022-08-21T18:51:02.468Z,10.93
2022-08-21T18:53:31.740Z,9.93
2022-08-21T18:56:04.888Z,11.50
2022-08-21T18:58:37.273Z,10.70
2022-08-21T19:03:35.930Z,9.55
2022-08-21T19:06:05.628Z,9.98
2022-08-21T19:08:41.192Z,9.85
2022-08-21T19:14:03.229Z,9.82
2022-08-21T19:19:02.418Z,10.15
2022-08-21T19:21:32.001Z,9.52
2022-08-21T19:24:01.197Z,10.43
2022-08-21T19:26:47.725Z,9.45
2022-08-21T19:29:21.843Z,10.23
2022-08-21T19:32:08.697Z,10.65
2022-08-21T19:34:40.650Z,12.50
2022-08-21T19:39:44.848Z,9.73
2022-08-21T19:42:20.999Z,9.77
2022-08-21T19:44:57.399Z,10.05
2022-08-21T19:47:29.464Z,10.05
2022-08-21T19:52:51.713Z,10.02
2022-08-21T19:55:23.254Z,9.70
2022-08-21T19:57:53.564Z,9.55
2022-08-21T20:00:25.254Z,9.50
2022-08-21T20:02:55.137Z,10.07
2022-08-21T20:05:24.354Z,9.80
2022-08-21T20:07:53.687Z,10.32
2022-08-21T20:10:23.209Z,10.13
2022-08-21T20:12:52.735Z,9.48
2022-08-21T20:15:24.703Z,9.70
2022-08-21T20:17:54.001Z,9.68
2022-08-21T20:20:23.633Z,10.07
2022-08-21T20:22:53.073Z,9.73
2022-08-21T20:25:22.475Z,9.77
2022-08-21T20:27:52.273Z,9.38
2022-08-21T20:30:23.497Z,9.75
2022-08-21T20:32:55.262Z,9.80
2022-08-21T20:35:25.176Z,10.73
2022-08-21T20:37:58.819Z,10.75
2022-08-21T20:40:32.772Z,10.73
2022-08-21T20:43:03.241Z,10.18
2022-08-21T20:45:36.084Z,9.85
2022-08-21T20:48:11.253Z,9.05
2022-08-21T20:50:46.326Z,9.55
2022-08-21T20:53:21.698Z,9.93
2022-08-21T20:55:52.860Z,10.10
2022-08-21T20:58:31.425Z,9.55
2022-08-21T21:01:08.282Z,10.15
2022-08-21T21:03:43.298Z,9.82
2022-08-21T21:06:16.194Z,9.43
2022-08-21T21:08:50.249Z,9.32
2022-08-21T21:11:24.797Z,9.20
2022-08-21T21:13:58.388Z,9.90
2022-08-21T21:16:34.975Z,9.27
2022-08-21T21:19:11.917Z,10.20
2022-08-21T21:21:51.502Z,9.70
2022-08-21T21:24:27.568Z,11.05
2022-08-21T21:30:01.602Z,9.52
2022-08-21T21:32:35.616Z,10.45
2022-08-21T21:35:07.385Z,10.50
2022-08-21T21:37:44.073Z,10.38
2022-08-21T21:40:36.789Z,10.93
2022-08-21T21:43:17.300Z,10.90
2022-08-21T21:46:07.061Z,11.75
2022-08-21T21:48:57.852Z,12.52
2022-08-21T21:51:42.436Z,11.82
2022-08-21T21:54:26.425Z,11.57
2022-08-21T21:57:04.953Z,11.98
2022-08-21T21:59:51.263Z,12.02
2022-08-21T22:02:33.989Z,12.45
2022-08-21T22:05:09.066Z,12.70
2022-08-21T22:07:43.031Z,13.38
2022-08-21T22:10:30.773Z,12.80
2022-08-21T22:13:26.276Z,12.30
2022-08-21T22:15:56.546Z,12.38
2022-08-21T22:18:31.387Z,12.32
2022-08-21T22:21:06.958Z,13.02
2022-08-21T22:23:40.506Z,12.27
2022-08-21T22:26:16.609Z,12.35
2022-08-21T22:28:49.453Z,13.27
2022-08-21T22:31:23.118Z,11.65
2022-08-21T22:34:05.370Z,11.48
2022-08-21T22:36:40.774Z,11.50
2022-08-21T22:39:18.473Z,11.02
2022-08-21T22:41:51.368Z,11.75
2022-08-21T22:44:23.725Z,12.10
2022-08-21T22:46:59.158Z,11.73
2022-08-21T22:49:38.593Z,11.50
2022-08-21T22:52:22.541Z,12.00
2022-08-21T22:54:54.037Z,11.13
2022-08-21T22:57:28.659Z,13.10
2022-08-21T23:00:02.649Z,14.55
2022-08-21T23:02:41.050Z,14.85
2022-08-21T23:05:24.699Z,17.55
2022-08-21T23:07:56.569Z,18.15
2022-08-21T23:10:32.913Z,17.70
2022-08-21T23:13:09.305Z,19.38
2022-08-21T23:16:03.526Z,19.48
2022-08-21T23:18:45.454Z,20.75
2022-08-21T23:24:19.495Z,22.30
2022-08-21T23:26:58.241Z,26.02
2022-08-21T23:29:38.626Z,26.52
2022-08-21T23:32:25.124Z,27.45
2022-08-21T23:35:12.845Z,29.77
2022-08-21T23:37:51.423Z,31.70
2022-08-21T23:40:37.192Z,31.80
2022-08-21T23:43:24.600Z,34.90
2022-08-21T23:46:08.825Z,35.65
2022-08-21T23:48:49.270Z,36.03
2022-08-21T23:54:26.597Z,36.40
2022-08-21T23:57:10.593Z,39.03
2022-08-21T23:59:49.534Z,38.65
